Time;durP1;ratioP1;P1;durP2;ratioP2;P2;SDS_P1;SDS_P2;PMS_P1;PMS_P2;Temp;Humidity;BMP_temperature;BMP_pressure;BME280_temperature;BME280_humidity;BME280_pressure;Samples;Min_cycle;Max_cycle;Signal;HPM_P1;HPM_P2
2022/02/26 00:00:50;;;;;;;5.1;2.05;;;;;;;1.83;54.42676;96194.17;;;;
2022/02/26 00:01:50;;;;;;;5.1;2.05;;;;;;;1.83;54.42676;96194.17;;;;
2022/02/26 00:02:51;;;;;;;5.1;2.05;;;;;;;1.83;54.42676;96194.17;;;;
2022/02/26 00:03:52;;;;;;;5.1;2.05;;;;;;;1.83;54.42676;96194.17;;;;
2022/02/26 00:04:52;;;;;;;5.1;2.05;;;;;;;1.83;54.42676;96194.17;;;;
2022/02/26 00:05:53;;;;;;;4.95;2.4;;;;;;;1.56;54.72949;96204.53;;;;
2022/02/26 00:06:53;;;;;;;4.95;2.4;;;;;;;1.56;54.72949;96204.53;;;;
2022/02/26 00:07:54;;;;;;;4.95;2.4;;;;;;;1.56;54.72949;96204.53;;;;
2022/02/26 00:08:55;;;;;;;4.95;2.4;;;;;;;1.56;54.72949;96204.53;;;;
2022/02/26 00:09:55;;;;;;;4.95;2.4;;;;;;;1.56;54.72949;96204.53;;;;
2022/02/26 00:10:56;;;;;;;4.95;2.4;;;;;;;1.56;54.72949;96204.53;;;;
2022/02/26 00:11:56;;;;;;;4.95;2.4;;;;;;;1.56;54.72949;96204.53;;;;
2022/02/26 00:12:57;;;;;;;4.95;2.4;;;;;;;1.56;54.72949;96204.53;;;;
2022/02/26 00:13:57;;;;;;;4.95;2.4;;;;;;;1.56;54.72949;96204.53;;;;
2022/02/26 00:14:58;;;;;;;4.95;2.4;;;;;;;1.56;54.72949;96204.53;;;;
2022/02/26 00:15:59;;;;;;;6.35;2.5;;;;;;;1.57;55.03516;96208.42;;;;
2022/02/26 00:17:00;;;;;;;6.35;2.5;;;;;;;1.57;55.03516;96208.42;;;;
2022/02/26 00:18:00;;;;;;;6.35;2.5;;;;;;;1.57;55.03516;96208.42;;;;
2022/02/26 00:19:01;;;;;;;6.35;2.5;;;;;;;1.57;55.03516;96208.42;;;;
2022/02/26 00:20:02;;;;;;;6.35;2.5;;;;;;;1.57;55.03516;96208.42;;;;
2022/02/26 00:21:04;;;;;;;6.35;2.5;;;;;;;1.57;55.03516;96208.42;;;;
2022/02/26 00:22:05;;;;;;;6.35;2.5;;;;;;;1.57;55.03516;96208.42;;;;
2022/02/26 00:23:05;;;;;;;6.35;2.5;;;;;;;1.57;55.03516;96208.42;;;;
2022/02/26 00:24:06;;;;;;;6.35;2.5;;;;;;;1.57;55.03516;96208.42;;;;
2022/02/26 00:25:07;;;;;;;6.35;2.5;;;;;;;1.57;55.03516;96208.42;;;;
2022/02/26 00:26:09;;;;;;;6.35;2.5;;;;;;;1.57;55.03516;96208.42;;;;
2022/02/26 00:27:10;;;;;;;5.799999;2.2;;;;;;;1.53;55.13574;96217.7;;;;
2022/02/26 00:28:10;;;;;;;5.799999;2.2;;;;;;;1.53;55.13574;96217.7;;;;
2022/02/26 00:29:11;;;;;;;5.799999;2.2;;;;;;;1.53;55.13574;96217.7;;;;
2022/02/26 00:30:11;;;;;;;5.799999;2.2;;;;;;;1.53;55.13574;96217.7;;;;
2022/02/26 00:31:12;;;;;;;5.799999;2.2;;;;;;;1.53;55.13574;96217.7;;;;
2022/02/26 00:32:13;;;;;;;5.799999;2.2;;;;;;;1.53;55.13574;96217.7;;;;
2022/02/26 00:33:13;;;;;;;5.799999;2.2;;;;;;;1.53;55.13574;96217.7;;;;
2022/02/26 00:34:14;;;;;;;5.799999;2.2;;;;;;;1.53;55.13574;96217.7;;;;
2022/02/26 00:35:14;;;;;;;5.799999;2.2;;;;;;;1.53;55.13574;96217.7;;;;
2022/02/26 00:36:15;;;;;;;5.799999;2.2;;;;;;;1.53;55.13574;96217.7;;;;
2022/02/26 00:37:15;;;;;;;5.799999;2.2;;;;;;;1.53;55.13574;96217.7;;;;
2022/02/26 00:38:16;;;;;;;5.799999;2.2;;;;;;;1.53;55.13574;96217.7;;;;
2022/02/26 00:39:16;;;;;;;5.799999;2.2;;;;;;;1.53;55.13574;96217.7;;;;
2022/02/26 00:40:17;;;;;;;5.799999;2.2;;;;;;;1.53;55.13574;96217.7;;;;
2022/02/26 00:41:17;;;;;;;5.799999;2.2;;;;;;;1.53;55.13574;96217.7;;;;
2022/02/26 00:42:18;;;;;;;5.799999;2.2;;;;;;;1.53;55.13574;96217.7;;;;
2022/02/26 00:43:18;;;;;;;5.799999;2.2;;;;;;;1.53;55.13574;96217.7;;;;
2022/02/26 00:44:20;;;;;;;5.799999;2.2;;;;;;;1.53;55.13574;96217.7;;;;
2022/02/26 00:45:20;;;;;;;5.799999;2.2;;;;;;;1.53;55.13574;96217.7;;;;
2022/02/26 00:46:21;;;;;;;5.799999;2.2;;;;;;;1.53;55.13574;96217.7;;;;
2022/02/26 00:47:21;;;;;;;5.799999;2.2;;;;;;;1.53;55.13574;96217.7;;;;
2022/02/26 00:49:46;;;;;;;3.8;2.2;;;;;;;1.56;55.30859;96234.71;;;;
2022/02/26 00:50:47;;;;;;;3.8;2.2;;;;;;;1.56;55.30859;96234.71;;;;
2022/02/26 00:51:47;;;;;;;3.8;2.2;;;;;;;1.56;55.30859;96234.71;;;;
2022/02/26 00:52:48;;;;;;;3.8;2.2;;;;;;;1.56;55.30859;96234.71;;;;
2022/02/26 00:53:49;;;;;;;3.8;2.2;;;;;;;1.56;55.30859;96234.71;;;;
2022/02/26 00:54:50;;;;;;;3.8;2.2;;;;;;;1.56;55.30859;96234.71;;;;
2022/02/26 00:55:50;;;;;;;3.8;2.2;;;;;;;1.56;55.30859;96234.71;;;;
2022/02/26 00:56:51;;;;;;;3.8;2.2;;;;;;;1.56;55.30859;96234.71;;;;
2022/02/26 00:57:52;;;;;;;3.8;2.2;;;;;;;1.56;55.30859;96234.71;;;;
2022/02/26 00:58:53;;;;;;;5.6;2.2;;;;;;;1.63;55.36914;96244.22;;;;
2022/02/26 00:59:54;;;;;;;5.6;2.2;;;;;;;1.63;55.36914;96244.22;;;;
2022/02/26 01:00:54;;;;;;;5.6;2.2;;;;;;;1.63;55.36914;96244.22;;;;
2022/02/26 01:01:55;;;;;;;5.6;2.2;;;;;;;1.63;55.36914;96244.22;;;;
2022/02/26 01:02:56;;;;;;;5.6;2.2;;;;;;;1.63;55.36914;96244.22;;;;
2022/02/26 01:03:56;;;;;;;5.6;2.2;;;;;;;1.63;55.36914;96244.22;;;;
2022/02/26 01:04:56;;;;;;;5.6;2.2;;;;;;;1.63;55.36914;96244.22;;;;
2022/02/26 01:05:57;;;;;;;5.6;2.2;;;;;;;1.63;55.36914;96244.22;;;;
2022/02/26 01:06:58;;;;;;;5.6;2.2;;;;;;;1.63;55.36914;96244.22;;;;
2022/02/26 01:07:58;;;;;;;5.6;2.2;;;;;;;1.63;55.36914;96244.22;;;;
2022/02/26 01:08:59;;;;;;;5.6;2.2;;;;;;;1.63;55.36914;96244.22;;;;
2022/02/26 01:09:59;;;;;;;5.150001;2.35;;;;;;;1.51;55.36523;96241.01;;;;
2022/02/26 01:11:00;;;;;;;5.150001;2.35;;;;;;;1.51;55.36523;96241.01;;;;
2022/02/26 01:12:00;;;;;;;5.150001;2.35;;;;;;;1.51;55.36523;96241.01;;;;
2022/02/26 01:13:03;;;;;;;5.150001;2.35;;;;;;;1.51;55.36523;96241.01;;;;
2022/02/26 01:14:04;;;;;;;5.150001;2.35;;;;;;;1.51;55.36523;96241.01;;;;
2022/02/26 01:15:05;;;;;;;5.150001;2.35;;;;;;;1.51;55.36523;96241.01;;;;
2022/02/26 01:16:06;;;;;;;5.150001;2.35;;;;;;;1.51;55.36523;96241.01;;;;
2022/02/26 01:17:06;;;;;;;5.150001;2.35;;;;;;;1.51;55.36523;96241.01;;;;
2022/02/26 01:18:10;;;;;;;5.150001;2.35;;;;;;;1.51;55.36523;96241.01;;;;
2022/02/26 01:19:10;;;;;;;5.150001;2.35;;;;;;;1.51;55.36523;96241.01;;;;
2022/02/26 01:20:11;;;;;;;5;2.5;;;;;;;1.22;55.61133;96254.68;;;;
2022/02/26 01:21:12;;;;;;;5;2.5;;;;;;;1.22;55.61133;96254.68;;;;
2022/02/26 01:22:12;;;;;;;5;2.5;;;;;;;1.22;55.61133;96254.68;;;;
2022/02/26 01:23:13;;;;;;;5;2.5;;;;;;;1.22;55.61133;96254.68;;;;
2022/02/26 01:24:14;;;;;;;5;2.5;;;;;;;1.22;55.61133;96254.68;;;;
2022/02/26 01:25:15;;;;;;;5;2.5;;;;;;;1.22;55.61133;96254.68;;;;
2022/02/26 01:26:15;;;;;;;5;2.5;;;;;;;1.22;55.61133;96254.68;;;;
2022/02/26 01:27:16;;;;;;;5;2.5;;;;;;;1.22;55.61133;96254.68;;;;
2022/02/26 01:28:17;;;;;;;5;2.5;;;;;;;1.22;55.61133;96254.68;;;;
2022/02/26 01:29:17;;;;;;;5;2.5;;;;;;;1.22;55.61133;96254.68;;;;
2022/02/26 01:30:18;;;;;;;5;2.5;;;;;;;1.22;55.61133;96254.68;;;;
2022/02/26 01:31:19;;;;;;;5;2.5;;;;;;;1.22;55.61133;96254.68;;;;
2022/02/26 01:32:19;;;;;;;5;2.5;;;;;;;1.22;55.61133;96254.68;;;;
2022/02/26 01:33:20;;;;;;;5;2.5;;;;;;;1.22;55.61133;96254.68;;;;
2022/02/26 01:34:20;;;;;;;5;2.5;;;;;;;1.22;55.61133;96254.68;;;;
2022/02/26 01:35:21;;;;;;;5;2.5;;;;;;;1.22;55.61133;96254.68;;;;
2022/02/26 01:36:22;;;;;;;5;2.5;;;;;;;1.22;55.61133;96254.68;;;;
2022/02/26 01:37:22;;;;;;;5;2.5;;;;;;;1.22;55.61133;96254.68;;;;
2022/02/26 01:38:23;;;;;;;5;2.5;;;;;;;1.22;55.61133;96254.68;;;;
2022/02/26 01:39:24;;;;;;;5;2.5;;;;;;;1.22;55.61133;96254.68;;;;
2022/02/26 01:40:25;;;;;;;5;2.5;;;;;;;1.22;55.61133;96254.68;;;;
2022/02/26 01:41:25;;;;;;;5;2.5;;;;;;;1.22;55.61133;96254.68;;;;
2022/02/26 01:42:26;;;;;;;5;2.5;;;;;;;1.22;55.61133;96254.68;;;;
2022/02/26 01:43:27;;;;;;;5;2.5;;;;;;;1.22;55.61133;96254.68;;;;
2022/02/26 01:44:28;;;;;;;5;2.5;;;;;;;1.22;55.61133;96254.68;;;;
2022/02/26 01:45:28;;;;;;;5;2.5;;;;;;;1.22;55.61133;96254.68;;;;
2022/02/26 01:46:29;;;;;;;5;2.5;;;;;;;1.22;55.61133;96254.68;;;;
2022/02/26 01:47:30;;;;;;;5;2.5;;;;;;;1.22;55.61133;96254.68;;;;
2022/02/26 01:48:32;;;;;;;5;2.5;;;;;;;1.22;55.61133;96254.68;;;;
2022/02/26 01:49:33;;;;;;;5;2.5;;;;;;;1.22;55.61133;96254.68;;;;
2022/02/26 01:50:33;;;;;;;5;2.5;;;;;;;1.22;55.61133;96254.68;;;;
2022/02/26 01:51:34;;;;;;;5;2.5;;;;;;;1.22;55.61133;96254.68;;;;
2022/02/26 01:52:35;;;;;;;5;2.5;;;;;;;1.22;55.61133;96254.68;;;;
2022/02/26 01:53:35;;;;;;;5;2.5;;;;;;;1.22;55.61133;96254.68;;;;
2022/02/26 01:54:37;;;;;;;5;2.5;;;;;;;1.22;55.61133;96254.68;;;;
2022/02/26 01:55:38;;;;;;;5;2.5;;;;;;;1.22;55.61133;96254.68;;;;
2022/02/26 01:56:39;;;;;;;5;2.5;;;;;;;1.22;55.61133;96254.68;;;;
2022/02/26 01:57:40;;;;;;;5;2.5;;;;;;;1.22;55.61133;96254.68;;;;
2022/02/26 01:58:40;;;;;;;5;2.5;;;;;;;1.22;55.61133;96254.68;;;;
2022/02/26 01:59:41;;;;;;;5;2.5;;;;;;;1.22;55.61133;96254.68;;;;
2022/02/26 02:00:42;;;;;;;5;2.5;;;;;;;1.22;55.61133;96254.68;;;;
2022/02/26 02:01:42;;;;;;;5;2.5;;;;;;;1.22;55.61133;96254.68;;;;
2022/02/26 02:02:43;;;;;;;6.05;3.3;;;;;;;0.99;56.13965;96275.2;;;;
2022/02/26 02:03:44;;;;;;;6.05;3.3;;;;;;;0.99;56.13965;96275.2;;;;
2022/02/26 02:04:44;;;;;;;6.05;3.3;;;;;;;0.99;56.13965;96275.2;;;;
2022/02/26 02:05:45;;;;;;;6.05;3.3;;;;;;;0.99;56.13965;96275.2;;;;
2022/02/26 02:06:45;;;;;;;6.05;3.3;;;;;;;0.99;56.13965;96275.2;;;;
2022/02/26 02:07:46;;;;;;;6.05;3.3;;;;;;;0.99;56.13965;96275.2;;;;
2022/02/26 02:08:47;;;;;;;6.05;3.3;;;;;;;0.99;56.13965;96275.2;;;;
2022/02/26 02:09:47;;;;;;;6.05;3.3;;;;;;;0.99;56.13965;96275.2;;;;
2022/02/26 02:10:48;;;;;;;6.05;3.3;;;;;;;0.99;56.13965;96275.2;;;;
2022/02/26 02:11:50;;;;;;;6.05;3.3;;;;;;;0.99;56.13965;96275.2;;;;
2022/02/26 02:12:51;;;;;;;6.05;3.3;;;;;;;0.99;56.13965;96275.2;;;;
2022/02/26 02:13:52;;;;;;;7.1;2.9;;;;;;;0.61;56.59473;96274.07;;;;
2022/02/26 02:14:52;;;;;;;7.1;2.9;;;;;;;0.61;56.59473;96274.07;;;;
2022/02/26 02:15:53;;;;;;;7.1;2.9;;;;;;;0.61;56.59473;96274.07;;;;
2022/02/26 02:16:54;;;;;;;7.1;2.9;;;;;;;0.61;56.59473;96274.07;;;;
2022/02/26 02:17:54;;;;;;;7.1;2.9;;;;;;;0.61;56.59473;96274.07;;;;
2022/02/26 02:18:55;;;;;;;7.1;2.9;;;;;;;0.61;56.59473;96274.07;;;;
2022/02/26 02:19:55;;;;;;;7.1;2.9;;;;;;;0.61;56.59473;96274.07;;;;
2022/02/26 02:20:57;;;;;;;7.1;2.9;;;;;;;0.61;56.59473;96274.07;;;;
2022/02/26 02:21:58;;;;;;;7.1;2.9;;;;;;;0.61;56.59473;96274.07;;;;
2022/02/26 02:23:02;;;;;;;7.1;2.9;;;;;;;0.61;56.59473;96274.07;;;;
2022/02/26 02:24:03;;;;;;;7.6;3.15;;;;;;;0.26;57.04199;96282.01;;;;
2022/02/26 02:25:04;;;;;;;7.6;3.15;;;;;;;0.26;57.04199;96282.01;;;;
2022/02/26 02:26:06;;;;;;;7.6;3.15;;;;;;;0.26;57.04199;96282.01;;;;
2022/02/26 02:27:06;;;;;;;7.6;3.15;;;;;;;0.26;57.04199;96282.01;;;;
2022/02/26 02:28:07;;;;;;;7.6;3.15;;;;;;;0.26;57.04199;96282.01;;;;
2022/02/26 02:29:09;;;;;;;7.6;3.15;;;;;;;0.26;57.04199;96282.01;;;;
2022/02/26 02:30:09;;;;;;;7.6;3.15;;;;;;;0.26;57.04199;96282.01;;;;
2022/02/26 02:31:11;;;;;;;7.6;3.15;;;;;;;0.26;57.04199;96282.01;;;;
2022/02/26 02:32:11;;;;;;;7.6;3.15;;;;;;;0.26;57.04199;96282.01;;;;
2022/02/26 02:33:13;;;;;;;7.6;3.15;;;;;;;0.26;57.04199;96282.01;;;;
2022/02/26 02:34:13;;;;;;;7.6;3.15;;;;;;;0.26;57.04199;96282.01;;;;
2022/02/26 02:35:13;;;;;;;9.35;3.45;;;;;;;0.13;57.18164;96287.25;;;;
2022/02/26 02:36:32;;;;;;;9.35;3.45;;;;;;;0.13;57.18164;96287.25;;;;
2022/02/26 02:37:41;;;;;;;9.35;3.45;;;;;;;0.13;57.18164;96287.25;;;;
2022/02/26 02:38:41;;;;;;;9.35;3.45;;;;;;;0.13;57.18164;96287.25;;;;
2022/02/26 02:39:42;;;;;;;9.35;3.45;;;;;;;0.13;57.18164;96287.25;;;;
2022/02/26 02:40:42;;;;;;;9.35;3.45;;;;;;;0.13;57.18164;96287.25;;;;
2022/02/26 02:41:45;;;;;;;9.35;3.45;;;;;;;0.13;57.18164;96287.25;;;;
2022/02/26 02:42:45;;;;;;;9.35;3.45;;;;;;;0.13;57.18164;96287.25;;;;
2022/02/26 02:43:46;;;;;;;9.35;3.45;;;;;;;0.13;57.18164;96287.25;;;;
2022/02/26 02:44:47;;;;;;;9.35;3.45;;;;;;;0.13;57.18164;96287.25;;;;
2022/02/26 02:45:47;;;;;;;6.25;3.2;;;;;;;0.17;57.39648;96291.28;;;;
2022/02/26 02:46:48;;;;;;;6.25;3.2;;;;;;;0.17;57.39648;96291.28;;;;
2022/02/26 02:47:48;;;;;;;6.25;3.2;;;;;;;0.17;57.39648;96291.28;;;;
2022/02/26 02:48:49;;;;;;;6.25;3.2;;;;;;;0.17;57.39648;96291.28;;;;
2022/02/26 02:49:50;;;;;;;6.25;3.2;;;;;;;0.17;57.39648;96291.28;;;;
2022/02/26 02:50:50;;;;;;;6.25;3.2;;;;;;;0.17;57.39648;96291.28;;;;
2022/02/26 02:51:51;;;;;;;6.25;3.2;;;;;;;0.17;57.39648;96291.28;;;;
2022/02/26 02:52:51;;;;;;;6.25;3.2;;;;;;;0.17;57.39648;96291.28;;;;
2022/02/26 02:53:52;;;;;;;6.25;3.2;;;;;;;0.17;57.39648;96291.28;;;;
2022/02/26 02:54:52;;;;;;;6.25;3.2;;;;;;;0.17;57.39648;96291.28;;;;
2022/02/26 02:55:53;;;;;;;6.25;3.2;;;;;;;0.17;57.39648;96291.28;;;;
2022/02/26 02:56:53;;;;;;;7.100001;3.3;;;;;;;0.47;57.09082;96305.15;;;;
2022/02/26 02:57:55;;;;;;;7.100001;3.3;;;;;;;0.47;57.09082;96305.15;;;;
2022/02/26 02:58:56;;;;;;;7.100001;3.3;;;;;;;0.47;57.09082;96305.15;;;;
2022/02/26 02:59:56;;;;;;;7.100001;3.3;;;;;;;0.47;57.09082;96305.15;;;;
2022/02/26 03:00:57;;;;;;;7.100001;3.3;;;;;;;0.47;57.09082;96305.15;;;;
2022/02/26 03:01:57;;;;;;;7.100001;3.3;;;;;;;0.47;57.09082;96305.15;;;;
2022/02/26 03:02:58;;;;;;;7.100001;3.3;;;;;;;0.47;57.09082;96305.15;;;;
2022/02/26 03:03:58;;;;;;;7.100001;3.3;;;;;;;0.47;57.09082;96305.15;;;;
2022/02/26 03:04:59;;;;;;;7.100001;3.3;;;;;;;0.47;57.09082;96305.15;;;;
2022/02/26 03:06:00;;;;;;;7.100001;3.3;;;;;;;0.47;57.09082;96305.15;;;;
2022/02/26 03:07:00;;;;;;;6;2.7;;;;;;;0.75;56.82324;96317.42;;;;
2022/02/26 03:08:01;;;;;;;6;2.7;;;;;;;0.75;56.82324;96317.42;;;;
2022/02/26 03:09:01;;;;;;;6;2.7;;;;;;;0.75;56.82324;96317.42;;;;
2022/02/26 03:10:02;;;;;;;6;2.7;;;;;;;0.75;56.82324;96317.42;;;;
2022/02/26 03:11:05;;;;;;;6;2.7;;;;;;;0.75;56.82324;96317.42;;;;
2022/02/26 03:12:05;;;;;;;6;2.7;;;;;;;0.75;56.82324;96317.42;;;;
2022/02/26 03:13:07;;;;;;;6;2.7;;;;;;;0.75;56.82324;96317.42;;;;
2022/02/26 03:14:08;;;;;;;6;2.7;;;;;;;0.75;56.82324;96317.42;;;;
2022/02/26 03:15:08;;;;;;;6;2.7;;;;;;;0.75;56.82324;96317.42;;;;
2022/02/26 03:16:09;;;;;;;6;2.7;;;;;;;0.75;56.82324;96317.42;;;;
2022/02/26 03:17:10;;;;;;;6;2.7;;;;;;;0.75;56.82324;96317.42;;;;
2022/02/26 03:18:11;;;;;;;6;2.7;;;;;;;0.75;56.82324;96317.42;;;;
2022/02/26 03:19:11;;;;;;;6;2.7;;;;;;;0.75;56.82324;96317.42;;;;
2022/02/26 03:20:12;;;;;;;6;2.7;;;;;;;0.75;56.82324;96317.42;;;;
2022/02/26 03:21:12;;;;;;;6;2.7;;;;;;;0.75;56.82324;96317.42;;;;
2022/02/26 03:22:13;;;;;;;6;2.7;;;;;;;0.75;56.82324;96317.42;;;;
2022/02/26 03:23:14;;;;;;;6;2.7;;;;;;;0.75;56.82324;96317.42;;;;
2022/02/26 03:24:15;;;;;;;6;2.7;;;;;;;0.75;56.82324;96317.42;;;;
2022/02/26 03:25:16;;;;;;;6;2.7;;;;;;;0.75;56.82324;96317.42;;;;
2022/02/26 03:26:18;;;;;;;6;2.7;;;;;;;0.75;56.82324;96317.42;;;;
2022/02/26 03:27:18;;;;;;;6;2.7;;;;;;;0.75;56.82324;96317.42;;;;
2022/02/26 03:28:19;;;;;;;5.55;2.7;;;;;;;1.15;56.79102;96326.76;;;;
2022/02/26 03:29:19;;;;;;;5.55;2.7;;;;;;;1.15;56.79102;96326.76;;;;
2022/02/26 03:30:20;;;;;;;5.55;2.7;;;;;;;1.15;56.79102;96326.76;;;;
2022/02/26 03:31:20;;;;;;;5.55;2.7;;;;;;;1.15;56.79102;96326.76;;;;
2022/02/26 03:32:21;;;;;;;5.55;2.7;;;;;;;1.15;56.79102;96326.76;;;;
2022/02/26 03:33:21;;;;;;;5.55;2.7;;;;;;;1.15;56.79102;96326.76;;;;
2022/02/26 03:34:22;;;;;;;5.55;2.7;;;;;;;1.15;56.79102;96326.76;;;;
2022/02/26 03:35:23;;;;;;;5.55;2.7;;;;;;;1.15;56.79102;96326.76;;;;
2022/02/26 03:36:24;;;;;;;5.55;2.7;;;;;;;1.15;56.79102;96326.76;;;;
2022/02/26 03:37:27;;;;;;;5.55;2.7;;;;;;;1.15;56.79102;96326.76;;;;
2022/02/26 03:38:28;;;;;;;5.55;2.7;;;;;;;1.15;56.79102;96326.76;;;;
2022/02/26 03:39:31;;;;;;;6.100001;2.75;;;;;;;1.23;56.67578;96346.7;;;;
2022/02/26 03:40:32;;;;;;;6.100001;2.75;;;;;;;1.23;56.67578;96346.7;;;;
2022/02/26 03:41:32;;;;;;;6.100001;2.75;;;;;;;1.23;56.67578;96346.7;;;;
2022/02/26 03:42:33;;;;;;;6.100001;2.75;;;;;;;1.23;56.67578;96346.7;;;;
2022/02/26 03:43:33;;;;;;;6.100001;2.75;;;;;;;1.23;56.67578;96346.7;;;;
2022/02/26 03:44:34;;;;;;;6.100001;2.75;;;;;;;1.23;56.67578;96346.7;;;;
2022/02/26 03:45:35;;;;;;;6.100001;2.75;;;;;;;1.23;56.67578;96346.7;;;;
2022/02/26 03:46:36;;;;;;;6.100001;2.75;;;;;;;1.23;56.67578;96346.7;;;;
2022/02/26 03:47:37;;;;;;;6.100001;2.75;;;;;;;1.23;56.67578;96346.7;;;;
2022/02/26 03:48:38;;;;;;;6.100001;2.75;;;;;;;1.23;56.67578;96346.7;;;;
2022/02/26 03:49:38;;;;;;;5.599999;2.6;;;;;;;1.28;56.78906;96345.75;;;;
2022/02/26 03:50:39;;;;;;;5.599999;2.6;;;;;;;1.28;56.78906;96345.75;;;;
2022/02/26 03:51:39;;;;;;;5.599999;2.6;;;;;;;1.28;56.78906;96345.75;;;;
2022/02/26 03:52:40;;;;;;;5.599999;2.6;;;;;;;1.28;56.78906;96345.75;;;;
2022/02/26 03:53:40;;;;;;;5.599999;2.6;;;;;;;1.28;56.78906;96345.75;;;;
2022/02/26 03:54:41;;;;;;;5.599999;2.6;;;;;;;1.28;56.78906;96345.75;;;;
2022/02/26 03:55:41;;;;;;;5.599999;2.6;;;;;;;1.28;56.78906;96345.75;;;;
2022/02/26 03:56:42;;;;;;;5.599999;2.6;;;;;;;1.28;56.78906;96345.75;;;;
2022/02/26 03:57:42;;;;;;;5.599999;2.6;;;;;;;1.28;56.78906;96345.75;;;;
2022/02/26 03:58:43;;;;;;;5.599999;2.6;;;;;;;1.28;56.78906;96345.75;;;;
2022/02/26 03:59:43;;;;;;;5.599999;2.6;;;;;;;1.28;56.78906;96345.75;;;;
2022/02/26 04:00:44;;;;;;;5.600001;2.5;;;;;;;1.38;57.02246;96358.54;;;;
2022/02/26 04:01:45;;;;;;;5.600001;2.5;;;;;;;1.38;57.02246;96358.54;;;;
2022/02/26 04:02:45;;;;;;;5.600001;2.5;;;;;;;1.38;57.02246;96358.54;;;;
2022/02/26 04:03:46;;;;;;;5.600001;2.5;;;;;;;1.38;57.02246;96358.54;;;;
2022/02/26 04:04:46;;;;;;;5.600001;2.5;;;;;;;1.38;57.02246;96358.54;;;;
2022/02/26 04:05:47;;;;;;;5.600001;2.5;;;;;;;1.38;57.02246;96358.54;;;;
2022/02/26 04:06:50;;;;;;;5.600001;2.5;;;;;;;1.38;57.02246;96358.54;;;;
2022/02/26 04:07:50;;;;;;;5.600001;2.5;;;;;;;1.38;57.02246;96358.54;;;;
2022/02/26 04:08:51;;;;;;;5.600001;2.5;;;;;;;1.38;57.02246;96358.54;;;;
2022/02/26 04:09:51;;;;;;;5.600001;2.5;;;;;;;1.38;57.02246;96358.54;;;;
2022/02/26 04:10:52;;;;;;;6.250001;3.15;;;;;;;1.43;57.27051;96367.74;;;;
2022/02/26 04:11:52;;;;;;;6.250001;3.15;;;;;;;1.43;57.27051;96367.74;;;;
2022/02/26 04:12:53;;;;;;;6.250001;3.15;;;;;;;1.43;57.27051;96367.74;;;;
2022/02/26 04:13:53;;;;;;;6.250001;3.15;;;;;;;1.43;57.27051;96367.74;;;;
2022/02/26 04:14:54;;;;;;;6.250001;3.15;;;;;;;1.43;57.27051;96367.74;;;;
2022/02/26 04:15:54;;;;;;;6.250001;3.15;;;;;;;1.43;57.27051;96367.74;;;;
2022/02/26 04:16:55;;;;;;;6.250001;3.15;;;;;;;1.43;57.27051;96367.74;;;;
2022/02/26 04:17:55;;;;;;;6.250001;3.15;;;;;;;1.43;57.27051;96367.74;;;;
2022/02/26 04:18:56;;;;;;;6.250001;3.15;;;;;;;1.43;57.27051;96367.74;;;;
2022/02/26 04:19:56;;;;;;;6.250001;3.15;;;;;;;1.43;57.27051;96367.74;;;;
2022/02/26 04:20:57;;;;;;;6.250001;3.15;;;;;;;1.43;57.27051;96367.74;;;;
2022/02/26 04:21:58;;;;;;;6.05;3.45;;;;;;;1.41;57.43652;96383.03;;;;
2022/02/26 04:22:58;;;;;;;6.05;3.45;;;;;;;1.41;57.43652;96383.03;;;;
2022/02/26 04:23:59;;;;;;;6.05;3.45;;;;;;;1.41;57.43652;96383.03;;;;
2022/02/26 04:25:00;;;;;;;6.05;3.45;;;;;;;1.41;57.43652;96383.03;;;;
2022/02/26 04:26:01;;;;;;;6.05;3.45;;;;;;;1.41;57.43652;96383.03;;;;
2022/02/26 04:27:01;;;;;;;6.05;3.45;;;;;;;1.41;57.43652;96383.03;;;;
2022/02/26 04:28:02;;;;;;;6.05;3.45;;;;;;;1.41;57.43652;96383.03;;;;
2022/02/26 04:29:03;;;;;;;6.05;3.45;;;;;;;1.41;57.43652;96383.03;;;;
2022/02/26 04:30:04;;;;;;;6.05;3.45;;;;;;;1.41;57.43652;96383.03;;;;
2022/02/26 04:31:06;;;;;;;6.05;3.45;;;;;;;1.41;57.43652;96383.03;;;;
2022/02/26 04:32:07;;;;;;;6.05;3.45;;;;;;;1.41;57.43652;96383.03;;;;
2022/02/26 04:33:08;;;;;;;5.95;3.35;;;;;;;1.4;57.49902;96387.59;;;;
2022/02/26 04:34:08;;;;;;;5.95;3.35;;;;;;;1.4;57.49902;96387.59;;;;
2022/02/26 04:35:09;;;;;;;5.95;3.35;;;;;;;1.4;57.49902;96387.59;;;;
2022/02/26 04:36:10;;;;;;;5.95;3.35;;;;;;;1.4;57.49902;96387.59;;;;
2022/02/26 04:37:11;;;;;;;5.95;3.35;;;;;;;1.4;57.49902;96387.59;;;;
2022/02/26 04:38:11;;;;;;;5.95;3.35;;;;;;;1.4;57.49902;96387.59;;;;
2022/02/26 04:39:12;;;;;;;5.95;3.35;;;;;;;1.4;57.49902;96387.59;;;;
2022/02/26 04:40:15;;;;;;;5.95;3.35;;;;;;;1.4;57.49902;96387.59;;;;
2022/02/26 04:41:15;;;;;;;5.95;3.35;;;;;;;1.4;57.49902;96387.59;;;;
2022/02/26 04:42:16;;;;;;;5.95;3.35;;;;;;;1.4;57.49902;96387.59;;;;
2022/02/26 04:43:17;;;;;;;6.55;3.35;;;;;;;1.42;57.93359;96386.44;;;;
2022/02/26 04:44:18;;;;;;;6.55;3.35;;;;;;;1.42;57.93359;96386.44;;;;
2022/02/26 04:45:18;;;;;;;6.55;3.35;;;;;;;1.42;57.93359;96386.44;;;;
2022/02/26 04:46:19;;;;;;;6.55;3.35;;;;;;;1.42;57.93359;96386.44;;;;
2022/02/26 04:47:20;;;;;;;6.55;3.35;;;;;;;1.42;57.93359;96386.44;;;;
2022/02/26 04:48:20;;;;;;;6.55;3.35;;;;;;;1.42;57.93359;96386.44;;;;
2022/02/26 04:49:21;;;;;;;6.55;3.35;;;;;;;1.42;57.93359;96386.44;;;;
2022/02/26 04:50:21;;;;;;;6.55;3.35;;;;;;;1.42;57.93359;96386.44;;;;
2022/02/26 04:51:22;;;;;;;6.55;3.35;;;;;;;1.42;57.93359;96386.44;;;;
2022/02/26 04:52:22;;;;;;;6.55;3.35;;;;;;;1.42;57.93359;96386.44;;;;
2022/02/26 04:53:23;;;;;;;6.55;3.35;;;;;;;1.42;57.93359;96386.44;;;;
2022/02/26 04:54:24;;;;;;;6.9;3.75;;;;;;;1.33;58.02637;96392.24;;;;
2022/02/26 04:55:24;;;;;;;6.9;3.75;;;;;;;1.33;58.02637;96392.24;;;;
2022/02/26 04:56:25;;;;;;;6.9;3.75;;;;;;;1.33;58.02637;96392.24;;;;
2022/02/26 04:57:25;;;;;;;6.9;3.75;;;;;;;1.33;58.02637;96392.24;;;;
2022/02/26 04:58:26;;;;;;;6.9;3.75;;;;;;;1.33;58.02637;96392.24;;;;
2022/02/26 04:59:26;;;;;;;6.9;3.75;;;;;;;1.33;58.02637;96392.24;;;;
2022/02/26 05:00:27;;;;;;;6.9;3.75;;;;;;;1.33;58.02637;96392.24;;;;
2022/02/26 05:01:27;;;;;;;6.9;3.75;;;;;;;1.33;58.02637;96392.24;;;;
2022/02/26 05:02:28;;;;;;;6.9;3.75;;;;;;;1.33;58.02637;96392.24;;;;
2022/02/26 05:03:28;;;;;;;6.9;3.75;;;;;;;1.33;58.02637;96392.24;;;;
2022/02/26 05:04:29;;;;;;;6.799999;3.5;;;;;;;1.26;58.24902;96393.84;;;;
2022/02/26 05:05:30;;;;;;;6.799999;3.5;;;;;;;1.26;58.24902;96393.84;;;;
2022/02/26 05:06:30;;;;;;;6.799999;3.5;;;;;;;1.26;58.24902;96393.84;;;;
2022/02/26 05:07:31;;;;;;;6.799999;3.5;;;;;;;1.26;58.24902;96393.84;;;;
2022/02/26 05:08:31;;;;;;;6.799999;3.5;;;;;;;1.26;58.24902;96393.84;;;;
2022/02/26 05:09:32;;;;;;;6.799999;3.5;;;;;;;1.26;58.24902;96393.84;;;;
2022/02/26 05:10:32;;;;;;;6.799999;3.5;;;;;;;1.26;58.24902;96393.84;;;;
2022/02/26 05:11:33;;;;;;;6.799999;3.5;;;;;;;1.26;58.24902;96393.84;;;;
2022/02/26 05:12:34;;;;;;;6.799999;3.5;;;;;;;1.26;58.24902;96393.84;;;;
2022/02/26 05:13:35;;;;;;;6.799999;3.5;;;;;;;1.26;58.24902;96393.84;;;;
2022/02/26 05:14:35;;;;;;;6.799999;3.5;;;;;;;1.26;58.24902;96393.84;;;;
2022/02/26 05:15:35;;;;;;;6.699999;3.45;;;;;;;1.22;58.31738;96409.79;;;;
2022/02/26 05:16:36;;;;;;;6.699999;3.45;;;;;;;1.22;58.31738;96409.79;;;;
2022/02/26 05:17:36;;;;;;;6.699999;3.45;;;;;;;1.22;58.31738;96409.79;;;;
2022/02/26 05:18:38;;;;;;;6.699999;3.45;;;;;;;1.22;58.31738;96409.79;;;;
2022/02/26 05:19:38;;;;;;;6.699999;3.45;;;;;;;1.22;58.31738;96409.79;;;;
2022/02/26 05:20:39;;;;;;;6.699999;3.45;;;;;;;1.22;58.31738;96409.79;;;;
2022/02/26 05:21:39;;;;;;;6.699999;3.45;;;;;;;1.22;58.31738;96409.79;;;;
2022/02/26 05:22:40;;;;;;;6.699999;3.45;;;;;;;1.22;58.31738;96409.79;;;;
2022/02/26 05:23:42;;;;;;;6.699999;3.45;;;;;;;1.22;58.31738;96409.79;;;;
2022/02/26 05:24:42;;;;;;;6.699999;3.45;;;;;;;1.22;58.31738;96409.79;;;;
2022/02/26 05:25:43;;;;;;;6.699999;3.45;;;;;;;1.22;58.31738;96409.79;;;;
2022/02/26 05:26:43;;;;;;;4.6;3;;;;;;;1.27;58.4082;96415.91;;;;
2022/02/26 05:27:44;;;;;;;4.6;3;;;;;;;1.27;58.4082;96415.91;;;;
2022/02/26 05:28:45;;;;;;;4.6;3;;;;;;;1.27;58.4082;96415.91;;;;
2022/02/26 05:29:45;;;;;;;4.6;3;;;;;;;1.27;58.4082;96415.91;;;;
2022/02/26 05:30:46;;;;;;;4.6;3;;;;;;;1.27;58.4082;96415.91;;;;
2022/02/26 05:31:46;;;;;;;4.6;3;;;;;;;1.27;58.4082;96415.91;;;;
2022/02/26 05:32:47;;;;;;;4.6;3;;;;;;;1.27;58.4082;96415.91;;;;
2022/02/26 05:33:47;;;;;;;4.6;3;;;;;;;1.27;58.4082;96415.91;;;;
2022/02/26 05:34:51;;;;;;;4.6;3;;;;;;;1.27;58.4082;96415.91;;;;
2022/02/26 05:35:52;;;;;;;4.6;3;;;;;;;1.27;58.4082;96415.91;;;;
2022/02/26 05:36:52;;;;;;;4.1;2.9;;;;;;;1.26;58.375;96422.19;;;;
2022/02/26 05:37:52;;;;;;;4.1;2.9;;;;;;;1.26;58.375;96422.19;;;;
2022/02/26 05:38:53;;;;;;;4.1;2.9;;;;;;;1.26;58.375;96422.19;;;;
2022/02/26 05:39:54;;;;;;;4.1;2.9;;;;;;;1.26;58.375;96422.19;;;;
2022/02/26 05:40:54;;;;;;;4.1;2.9;;;;;;;1.26;58.375;96422.19;;;;
2022/02/26 05:41:55;;;;;;;4.1;2.9;;;;;;;1.26;58.375;96422.19;;;;
2022/02/26 05:42:56;;;;;;;4.1;2.9;;;;;;;1.26;58.375;96422.19;;;;
2022/02/26 05:43:56;;;;;;;4.1;2.9;;;;;;;1.26;58.375;96422.19;;;;
2022/02/26 05:44:57;;;;;;;4.1;2.9;;;;;;;1.26;58.375;96422.19;;;;
2022/02/26 05:45:57;;;;;;;4.1;2.9;;;;;;;1.26;58.375;96422.19;;;;
2022/02/26 05:46:58;;;;;;;4.1;2.9;;;;;;;1.26;58.375;96422.19;;;;
2022/02/26 05:47:58;;;;;;;5.75;3.25;;;;;;;1.24;58.54102;96435.75;;;;
2022/02/26 05:48:59;;;;;;;5.75;3.25;;;;;;;1.24;58.54102;96435.75;;;;
2022/02/26 05:50:00;;;;;;;5.75;3.25;;;;;;;1.24;58.54102;96435.75;;;;
2022/02/26 05:51:01;;;;;;;5.75;3.25;;;;;;;1.24;58.54102;96435.75;;;;
2022/02/26 05:52:02;;;;;;;5.75;3.25;;;;;;;1.24;58.54102;96435.75;;;;
2022/02/26 05:53:03;;;;;;;5.75;3.25;;;;;;;1.24;58.54102;96435.75;;;;